Time;durP1;ratioP1;P1;durP2;ratioP2;P2;SDS_P1;SDS_P2;PMS_P1;PMS_P2;Temp;Humidity;BMP_temperature;BMP_pressure;BME280_temperature;BME280_humidity;BME280_pressure;Samples;Min_cycle;Max_cycle;Signal;HPM_P1;HPM_P2
2023/08/02 00:00:38;;;;;;;1.85;1.08;;;;;;;;;;5034708;28;20204;-38
2023/08/02 00:03:25;;;;;;;1.63;1.30;;;;;;;;;;5034762;28;20527;-40
2023/08/02 00:05:54;;;;;;;2.47;1.30;;;;;;;;;;5034323;28;20196;-39
2023/08/02 00:08:22;;;;;;;2.75;1.33;;;;;;;;;;5034450;28;20208;-38
2023/08/02 00:10:49;;;;;;;2.10;1.20;;;;;;;;;;5034369;28;20563;-38
2023/08/02 00:13:17;;;;;;;1.95;1.35;;;;;;;;;;5034542;28;20208;-39
2023/08/02 00:15:45;;;;;;;1.00;0.82;;;;;;;;;;5034470;28;20196;-38
2023/08/02 00:18:12;;;;;;;1.60;1.23;;;;;;;;;;5034419;28;20207;-38
2023/08/02 00:20:40;;;;;;;1.23;1.00;;;;;;;;;;5034596;28;20205;-38
2023/08/02 00:23:06;;;;;;;4.32;1.38;;;;;;;;;;5034010;28;20568;-38
2023/08/02 00:25:34;;;;;;;2.25;1.48;;;;;;;;;;5034194;28;20251;-39
2023/08/02 00:28:01;;;;;;;3.92;1.10;;;;;;;;;;5034066;28;20216;-38
2023/08/02 00:30:31;;;;;;;1.42;1.02;;;;;;;;;;5032886;28;20189;-38
2023/08/02 00:32:59;;;;;;;2.08;1.20;;;;;;;;;;5034172;28;20228;-38
2023/08/02 00:35:26;;;;;;;3.85;1.35;;;;;;;;;;5034105;28;20216;-38
2023/08/02 00:37:53;;;;;;;1.92;1.30;;;;;;;;;;5032702;28;20550;-40
2023/08/02 00:40:25;;;;;;;2.97;1.38;;;;;;;;;;5065776;28;20275;-38
2023/08/02 00:42:52;;;;;;;1.80;1.20;;;;;;;;;;5033836;28;20263;-38
2023/08/02 00:45:19;;;;;;;4.13;1.17;;;;;;;;;;5032804;28;20205;-38
2023/08/02 00:47:46;;;;;;;3.05;1.55;;;;;;;;;;5032452;28;20592;-38
2023/08/02 00:50:13;;;;;;;2.72;1.40;;;;;;;;;;5032529;28;20575;-39
2023/08/02 00:52:41;;;;;;;1.73;1.20;;;;;;;;;;5033540;28;20278;-38
2023/08/02 00:55:08;;;;;;;1.80;1.38;;;;;;;;;;5016187;28;20205;-38
2023/08/02 00:57:35;;;;;;;1.30;1.10;;;;;;;;;;5032112;28;20287;-38
2023/08/02 01:00:03;;;;;;;1.98;1.35;;;;;;;;;;5065664;28;20208;-40
2023/08/02 01:02:31;;;;;;;2.13;1.40;;;;;;;;;;5033476;28;20688;-38
2023/08/02 01:04:58;;;;;;;1.92;1.27;;;;;;;;;;5032172;28;20605;-39
2023/08/02 01:07:30;;;;;;;2.92;1.52;;;;;;;;;;5032196;28;20258;-38
2023/08/02 01:10:08;;;;;;;2.25;1.23;;;;;;;;;;5015966;28;20267;-38
2023/08/02 01:12:35;;;;;;;2.50;1.20;;;;;;;;;;5032533;28;20223;-39
2023/08/02 01:15:03;;;;;;;3.17;1.42;;;;;;;;;;5032425;28;20209;-39
2023/08/02 01:17:30;;;;;;;1.80;1.20;;;;;;;;;;5015887;28;20207;-38
2023/08/02 01:20:06;;;;;;;1.33;1.13;;;;;;;;;;5032274;28;20200;-38
2023/08/02 01:22:33;;;;;;;1.92;1.13;;;;;;;;;;5033515;28;20205;-38
2023/08/02 01:25:01;;;;;;;4.03;1.38;;;;;;;;;;5033533;28;20208;-38
2023/08/02 01:27:37;;;;;;;2.08;1.27;;;;;;;;;;5016167;28;20227;-38
2023/08/02 01:30:09;;;;;;;4.30;1.30;;;;;;;;;;5033368;28;20192;-38
2023/08/02 01:32:36;;;;;;;1.95;1.20;;;;;;;;;;5031948;28;20768;-38
2023/08/02 01:35:04;;;;;;;1.92;1.20;;;;;;;;;;5031779;28;20228;-39
2023/08/02 01:37:32;;;;;;;2.10;1.33;;;;;;;;;;5032009;28;20676;-38
2023/08/02 01:40:00;;;;;;;1.73;1.00;;;;;;;;;;5031987;28;20577;-39
2023/08/02 01:42:28;;;;;;;2.15;1.17;;;;;;;;;;5032194;28;20262;-38
2023/08/02 01:44:55;;;;;;;1.80;1.40;;;;;;;;;;5033178;28;20549;-38
2023/08/02 01:47:23;;;;;;;4.72;1.25;;;;;;;;;;5031862;28;20211;-39
2023/08/02 01:49:51;;;;;;;2.40;1.27;;;;;;;;;;5033388;28;20201;-38
2023/08/02 01:52:18;;;;;;;1.38;1.05;;;;;;;;;;5031933;28;20311;-38
2023/08/02 01:54:45;;;;;;;2.20;1.30;;;;;;;;;;5031949;28;20209;-39
2023/08/02 01:57:12;;;;;;;2.15;1.15;;;;;;;;;;5033073;28;20236;-39
2023/08/02 01:59:39;;;;;;;1.67;1.30;;;;;;;;;;5031693;28;20205;-38
2023/08/02 02:02:06;;;;;;;3.13;1.48;;;;;;;;;;5031841;28;20747;-38
2023/08/02 02:04:34;;;;;;;2.10;1.40;;;;;;;;;;5031872;28;20236;-38
2023/08/02 02:07:01;;;;;;;4.30;1.08;;;;;;;;;;5031851;28;20288;-39
2023/08/02 02:09:29;;;;;;;3.20;1.13;;;;;;;;;;5035299;28;20205;-38
2023/08/02 02:11:56;;;;;;;2.50;1.27;;;;;;;;;;5036915;28;20231;-38
2023/08/02 02:14:24;;;;;;;2.15;1.17;;;;;;;;;;5036365;28;20220;-38
2023/08/02 02:16:52;;;;;;;2.38;1.30;;;;;;;;;;5035303;28;20288;-38
2023/08/02 02:19:20;;;;;;;2.13;1.20;;;;;;;;;;5035230;28;20755;-38
2023/08/02 02:21:47;;;;;;;2.03;1.00;;;;;;;;;;5035377;28;20295;-38
2023/08/02 02:24:14;;;;;;;1.77;1.10;;;;;;;;;;5035526;28;20215;-38
2023/08/02 02:26:41;;;;;;;3.50;1.50;;;;;;;;;;5036479;28;20259;-39
2023/08/02 02:29:09;;;;;;;2.63;1.52;;;;;;;;;;5034714;28;20204;-38
2023/08/02 02:31:36;;;;;;;1.73;1.17;;;;;;;;;;5036265;28;20201;-38
2023/08/02 02:34:03;;;;;;;1.70;1.05;;;;;;;;;;5036129;28;20209;-38
2023/08/02 02:36:33;;;;;;;1.55;1.10;;;;;;;;;;5018885;28;20263;-38
2023/08/02 02:39:00;;;;;;;4.45;1.10;;;;;;;;;;5036030;28;20209;-38
2023/08/02 02:41:27;;;;;;;2.30;1.42;;;;;;;;;;5035669;28;20208;-38
2023/08/02 02:43:55;;;;;;;3.83;1.30;;;;;;;;;;5034867;28;20205;-38
2023/08/02 02:46:22;;;;;;;2.58;1.48;;;;;;;;;;5035922;28;20224;-39
2023/08/02 02:48:50;;;;;;;2.60;1.25;;;;;;;;;;5035564;28;20212;-38
2023/08/02 02:51:17;;;;;;;2.63;1.08;;;;;;;;;;5035635;28;20287;-39
2023/08/02 02:53:44;;;;;;;2.67;1.30;;;;;;;;;;5034590;28;20282;-38
2023/08/02 02:56:12;;;;;;;2.80;1.23;;;;;;;;;;5034325;28;20259;-39
2023/08/02 02:58:39;;;;;;;1.75;1.15;;;;;;;;;;5035380;28;20235;-38
2023/08/02 03:01:06;;;;;;;2.13;1.50;;;;;;;;;;5035298;28;20197;-38
2023/08/02 03:03:33;;;;;;;2.40;1.48;;;;;;;;;;5035627;28;20221;-39
2023/08/02 03:06:01;;;;;;;5.90;1.55;;;;;;;;;;5035559;28;20197;-38
2023/08/02 03:08:30;;;;;;;5.57;1.33;;;;;;;;;;5035351;28;20208;-38
2023/08/02 03:10:57;;;;;;;2.92;1.40;;;;;;;;;;5035056;28;20205;-39
2023/08/02 03:13:24;;;;;;;1.98;1.52;;;;;;;;;;5035442;28;20232;-38
2023/08/02 03:15:51;;;;;;;1.77;1.50;;;;;;;;;;5035184;28;20287;-38
2023/08/02 03:18:18;;;;;;;3.13;1.63;;;;;;;;;;5035239;28;20204;-38
2023/08/02 03:20:45;;;;;;;3.45;1.30;;;;;;;;;;5033064;28;20650;-39
2023/08/02 03:23:13;;;;;;;2.33;1.50;;;;;;;;;;5035026;28;20204;-38
2023/08/02 03:25:40;;;;;;;3.15;1.70;;;;;;;;;;5035182;28;20205;-39
2023/08/02 03:28:07;;;;;;;5.95;1.13;;;;;;;;;;5033742;28;20207;-39
2023/08/02 03:30:34;;;;;;;3.63;1.58;;;;;;;;;;5035105;28;20216;-39
2023/08/02 03:33:02;;;;;;;2.20;1.48;;;;;;;;;;5034717;28;20225;-39
2023/08/02 03:35:29;;;;;;;2.78;1.50;;;;;;;;;;5035154;28;20270;-38
2023/08/02 03:37:56;;;;;;;2.72;1.50;;;;;;;;;;5035174;28;20204;-38
2023/08/02 03:40:23;;;;;;;3.55;1.70;;;;;;;;;;5034937;28;20283;-39
2023/08/02 03:42:50;;;;;;;2.80;1.50;;;;;;;;;;5035002;28;20208;-38
2023/08/02 03:45:17;;;;;;;1.98;1.40;;;;;;;;;;5034981;28;20201;-38
2023/08/02 03:47:45;;;;;;;1.70;1.30;;;;;;;;;;5034872;28;20208;-38
2023/08/02 03:50:12;;;;;;;3.80;1.85;;;;;;;;;;5034791;28;20215;-38
2023/08/02 03:52:39;;;;;;;3.70;1.90;;;;;;;;;;5035009;28;20295;-39
2023/08/02 03:55:06;;;;;;;3.60;1.75;;;;;;;;;;5035124;28;20204;-38
2023/08/02 03:57:34;;;;;;;4.05;1.85;;;;;;;;;;5034890;28;20209;-38
2023/08/02 04:00:01;;;;;;;1.73;1.55;;;;;;;;;;5034611;28;20212;-38
2023/08/02 04:02:38;;;;;;;2.47;1.65;;;;;;;;;;5034369;28;20613;-38
2023/08/02 04:05:05;;;;;;;2.42;1.75;;;;;;;;;;5034443;28;20205;-38
2023/08/02 04:07:33;;;;;;;3.58;2.22;;;;;;;;;;5034522;28;20209;-39
2023/08/02 04:10:00;;;;;;;2.70;2.10;;;;;;;;;;5034241;28;20208;-38
2023/08/02 04:12:27;;;;;;;3.47;2.22;;;;;;;;;;5034401;28;20228;-38
2023/08/02 04:14:55;;;;;;;4.05;2.40;;;;;;;;;;5034270;28;20681;-38
2023/08/02 04:17:22;;;;;;;2.35;1.90;;;;;;;;;;5034349;28;20228;-38
2023/08/02 04:19:49;;;;;;;3.80;1.92;;;;;;;;;;5034042;28;20211;-38
2023/08/02 04:22:16;;;;;;;3.20;1.88;;;;;;;;;;5034371;28;20212;-38
2023/08/02 04:24:43;;;;;;;2.22;1.90;;;;;;;;;;5034313;28;20209;-39
2023/08/02 04:27:11;;;;;;;2.60;2.05;;;;;;;;;;5015981;28;20673;-38
2023/08/02 04:29:38;;;;;;;4.90;2.10;;;;;;;;;;5034234;28;20209;-38
2023/08/02 04:32:05;;;;;;;3.05;2.28;;;;;;;;;;5033690;28;20619;-38
2023/08/02 04:34:32;;;;;;;4.50;2.40;;;;;;;;;;5033763;28;20205;-38
2023/08/02 04:37:00;;;;;;;3.83;2.60;;;;;;;;;;5034195;28;20224;-38
2023/08/02 04:39:27;;;;;;;6.50;2.45;;;;;;;;;;5034206;28;20216;-38
2023/08/02 04:41:54;;;;;;;4.20;2.67;;;;;;;;;;5033720;28;20654;-39
2023/08/02 04:44:21;;;;;;;3.05;2.63;;;;;;;;;;5033603;28;20216;-38
2023/08/02 04:46:49;;;;;;;3.55;2.17;;;;;;;;;;5033766;28;20319;-38
2023/08/02 04:49:16;;;;;;;3.75;2.50;;;;;;;;;;5033605;28;20201;-39
2023/08/02 04:51:43;;;;;;;3.10;2.20;;;;;;;;;;5033859;28;20208;-38
2023/08/02 04:54:10;;;;;;;5.60;2.53;;;;;;;;;;5033582;28;20278;-39
2023/08/02 04:56:38;;;;;;;8.50;2.75;;;;;;;;;;5033654;28;20561;-39
2023/08/02 04:59:10;;;;;;;4.80;2.90;;;;;;;;;;5033574;28;20250;-38
2023/08/02 05:01:37;;;;;;;3.03;2.15;;;;;;;;;;5033574;28;20209;-38
2023/08/02 05:04:07;;;;;;;4.90;2.53;;;;;;;;;;5033277;28;20241;-38
2023/08/02 05:06:35;;;;;;;3.83;1.80;;;;;;;;;;5033868;28;20201;-39
2023/08/02 05:09:06;;;;;;;3.58;2.67;;;;;;;;;;5033236;28;20200;-38
2023/08/02 05:11:34;;;;;;;8.18;2.92;;;;;;;;;;5032293;28;20205;-38
2023/08/02 05:14:01;;;;;;;3.78;2.58;;;;;;;;;;5033412;28;20224;-39
2023/08/02 05:16:28;;;;;;;5.13;2.42;;;;;;;;;;5033651;28;20201;-38
2023/08/02 05:18:56;;;;;;;3.72;2.65;;;;;;;;;;5033410;28;20274;-38
2023/08/02 05:21:23;;;;;;;4.45;2.90;;;;;;;;;;5033428;28;20204;-39
2023/08/02 05:23:50;;;;;;;3.38;2.53;;;;;;;;;;5033169;28;20677;-38
2023/08/02 05:26:21;;;;;;;4.70;3.28;;;;;;;;;;5033150;28;20204;-39
2023/08/02 05:28:48;;;;;;;3.95;2.90;;;;;;;;;;5033651;28;20227;-39
2023/08/02 05:31:16;;;;;;;5.30;3.17;;;;;;;;;;5033304;28;20208;-38
2023/08/02 05:33:46;;;;;;;4.50;3.40;;;;;;;;;;5033452;28;20200;-38
2023/08/02 05:36:14;;;;;;;7.40;5.55;;;;;;;;;;5033334;28;20208;-38
2023/08/02 05:38:42;;;;;;;6.93;4.10;;;;;;;;;;5033049;28;20200;-38
2023/08/02 05:41:09;;;;;;;4.72;2.90;;;;;;;;;;5033379;28;20661;-38
2023/08/02 05:43:41;;;;;;;5.88;3.80;;;;;;;;;;5034202;28;20657;-39
2023/08/02 05:46:09;;;;;;;4.95;3.25;;;;;;;;;;5019780;28;20211;-38
2023/08/02 05:48:36;;;;;;;6.25;3.63;;;;;;;;;;5037143;28;20603;-38
2023/08/02 05:51:03;;;;;;;6.60;3.75;;;;;;;;;;5036964;28;20205;-38
2023/08/02 05:53:30;;;;;;;13.20;3.80;;;;;;;;;;5037388;28;20314;-38
2023/08/02 05:55:58;;;;;;;5.47;3.70;;;;;;;;;;5037035;28;20258;-39
2023/08/02 05:58:25;;;;;;;5.78;4.13;;;;;;;;;;5037119;28;20200;-39
2023/08/02 06:00:52;;;;;;;6.00;3.88;;;;;;;;;;5036700;28;20204;-39
2023/08/02 06:03:19;;;;;;;6.40;4.68;;;;;;;;;;5036694;28;20244;-38
2023/08/02 06:05:48;;;;;;;7.10;5.22;;;;;;;;;;5036725;28;20205;-38
2023/08/02 06:08:15;;;;;;;7.90;5.15;;;;;;;;;;5036758;28;20258;-39
2023/08/02 06:10:43;;;;;;;7.35;4.93;;;;;;;;;;5036718;28;20196;-39
2023/08/02 06:13:10;;;;;;;6.72;5.28;;;;;;;;;;5036691;28;20232;-38
2023/08/02 06:15:38;;;;;;;10.25;6.28;;;;;;;;;;5036730;28;20270;-38
2023/08/02 06:18:05;;;;;;;12.75;6.20;;;;;;;;;;5036616;28;20613;-39
2023/08/02 06:20:32;;;;;;;8.60;6.47;;;;;;;;;;5036691;28;20209;-38
2023/08/02 06:22:59;;;;;;;10.13;6.78;;;;;;;;;;5036321;28;20207;-38
2023/08/02 06:25:27;;;;;;;9.88;7.45;;;;;;;;;;5036367;28;20207;-38
2023/08/02 06:27:54;;;;;;;15.95;6.65;;;;;;;;;;5035323;28;20212;-39
2023/08/02 06:30:22;;;;;;;10.95;7.22;;;;;;;;;;5036314;28;20251;-38
2023/08/02 06:32:49;;;;;;;12.38;7.10;;;;;;;;;;5036308;28;20235;-39
2023/08/02 06:35:16;;;;;;;8.93;6.53;;;;;;;;;;5036667;28;20208;-39
2023/08/02 06:37:43;;;;;;;10.20;7.63;;;;;;;;;;5036074;28;20204;-39
2023/08/02 06:40:11;;;;;;;9.10;7.32;;;;;;;;;;5036214;28;20205;-39
2023/08/02 06:42:38;;;;;;;15.70;6.53;;;;;;;;;;5036098;28;20201;-38
2023/08/02 06:45:06;;;;;;;10.40;7.72;;;;;;;;;;5035896;28;20207;-38
2023/08/02 06:47:33;;;;;;;9.77;7.47;;;;;;;;;;5035985;28;20201;-39
2023/08/02 06:50:00;;;;;;;9.90;7.10;;;;;;;;;;5036013;28;20612;-38
2023/08/02 06:52:29;;;;;;;10.23;7.22;;;;;;;;;;5036113;28;20204;-38
2023/08/02 06:54:57;;;;;;;11.18;7.38;;;;;;;;;;5034956;28;20593;-38
2023/08/02 06:57:24;;;;;;;10.27;7.18;;;;;;;;;;5034553;28;20201;-38
2023/08/02 06:59:53;;;;;;;9.75;7.25;;;;;;;;;;5035553;28;20555;-38
2023/08/02 07:02:20;;;;;;;10.45;7.70;;;;;;;;;;5035535;28;20203;-39
2023/08/02 07:04:48;;;;;;;10.40;7.40;;;;;;;;;;5035634;28;20594;-38
2023/08/02 07:07:15;;;;;;;11.50;6.65;;;;;;;;;;5036023;28;20215;-38
2023/08/02 07:09:42;;;;;;;11.23;7.13;;;;;;;;;;5035614;28;20212;-39
2023/08/02 07:12:09;;;;;;;10.57;7.85;;;;;;;;;;5035662;28;20231;-38
2023/08/02 07:14:36;;;;;;;9.45;7.03;;;;;;;;;;5035492;28;20239;-38
2023/08/02 07:17:03;;;;;;;8.38;7.05;;;;;;;;;;5035358;28;20201;-38
2023/08/02 07:19:31;;;;;;;8.70;6.57;;;;;;;;;;5035488;28;20208;-39
2023/08/02 07:21:58;;;;;;;9.73;7.45;;;;;;;;;;5035334;28;20211;-38
2023/08/02 07:24:25;;;;;;;11.13;8.00;;;;;;;;;;5035308;28;20212;-39
2023/08/02 07:26:52;;;;;;;9.60;7.15;;;;;;;;;;5035117;28;20282;-38
2023/08/02 07:29:19;;;;;;;12.10;7.75;;;;;;;;;;5034987;28;20580;-39
2023/08/02 07:31:46;;;;;;;10.68;7.35;;;;;;;;;;5035070;28;20211;-38
2023/08/02 07:34:14;;;;;;;9.95;7.20;;;;;;;;;;5035114;28;20228;-39
2023/08/02 07:36:40;;;;;;;8.45;6.40;;;;;;;;;;5035305;28;20200;-38
2023/08/02 07:39:08;;;;;;;9.00;6.90;;;;;;;;;;5035227;28;20205;-39
2023/08/02 07:41:35;;;;;;;9.90;7.20;;;;;;;;;;5034975;28;20229;-39
2023/08/02 07:44:02;;;;;;;9.05;6.93;;;;;;;;;;5035155;28;20224;-39
2023/08/02 07:46:29;;;;;;;11.40;6.88;;;;;;;;;;5035009;28;20551;-39
2023/08/02 07:48:57;;;;;;;9.80;7.30;;;;;;;;;;5034835;28;20201;-39
2023/08/02 07:51:24;;;;;;;10.52;7.20;;;;;;;;;;5034722;28;20209;-38
2023/08/02 07:53:51;;;;;;;11.25;7.53;;;;;;;;;;5034724;28;20229;-39
2023/08/02 07:56:19;;;;;;;8.55;6.85;;;;;;;;;;5034636;28;20205;-39
2023/08/02 07:58:46;;;;;;;12.10;8.43;;;;;;;;;;5034786;28;20209;-39
2023/08/02 08:01:13;;;;;;;8.77;7.18;;;;;;;;;;5034722;28;20205;-39
2023/08/02 08:03:40;;;;;;;10.25;7.47;;;;;;;;;;5034566;28;20237;-38
2023/08/02 08:06:13;;;;;;;11.93;8.18;;;;;;;;;;5033302;28;20209;-39
2023/08/02 08:08:41;;;;;;;10.48;8.02;;;;;;;;;;5034413;28;20200;-38
2023/08/02 08:11:08;;;;;;;11.73;7.47;;;;;;;;;;5034612;28;20217;-38
2023/08/02 08:13:35;;;;;;;10.63;7.93;;;;;;;;;;5034411;28;20307;-38
2023/08/02 08:16:03;;;;;;;10.48;8.35;;;;;;;;;;5034277;28;20200;-40
2023/08/02 08:18:31;;;;;;;9.57;7.28;;;;;;;;;;5034152;28;20669;-38
2023/08/02 08:21:01;;;;;;;9.48;7.47;;;;;;;;;;5034405;28;20205;-38
2023/08/02 08:23:29;;;;;;;11.40;8.20;;;;;;;;;;5034298;28;20266;-39
2023/08/02 08:25:57;;;;;;;14.10;7.13;;;;;;;;;;5034332;28;20204;-38
2023/08/02 08:28:24;;;;;;;12.77;7.30;;;;;;;;;;5034046;28;20205;-39
2023/08/02 08:31:02;;;;;;;8.50;7.15;;;;;;;;;;5034031;28;20208;-38
2023/08/02 08:33:30;;;;;;;7.45;6.07;;;;;;;;;;5033909;28;20311;-38
2023/08/02 08:35:57;;;;;;;10.07;6.72;;;;;;;;;;5034297;28;20200;-38
2023/08/02 08:38:24;;;;;;;9.23;6.07;;;;;;;;;;5034080;28;20224;-39
2023/08/02 08:40:55;;;;;;;8.13;6.30;;;;;;;;;;5034121;28;20200;-38
2023/08/02 08:43:28;;;;;;;7.50;5.93;;;;;;;;;;5034762;28;20303;-39
2023/08/02 08:45:56;;;;;;;8.05;6.15;;;;;;;;;;5033864;28;20204;-39
2023/08/02 08:48:24;;;;;;;7.40;6.18;;;;;;;;;;5033777;28;20258;-38
2023/08/02 08:50:54;;;;;;;7.45;5.25;;;;;;;;;;5015605;28;20207;-38
2023/08/02 08:53:32;;;;;;;5.97;4.63;;;;;;;;;;5033483;28;20295;-38
2023/08/02 08:56:01;;;;;;;5.38;4.68;;;;;;;;;;5033779;28;20205;-38
2023/08/02 08:58:29;;;;;;;4.10;3.70;;;;;;;;;;5033582;28;20200;-38
2023/08/02 09:00:58;;;;;;;4.90;3.70;;;;;;;;;;5033747;28;20205;-39
2023/08/02 09:03:25;;;;;;;5.00;3.83;;;;;;;;;;5032523;28;20286;-38
2023/08/02 09:05:52;;;;;;;5.38;4.13;;;;;;;;;;5033718;28;20228;-39
2023/08/02 09:08:19;;;;;;;4.70;3.38;;;;;;;;;;5032302;28;20563;-38
2023/08/02 09:10:46;;;;;;;4.78;3.00;;;;;;;;;;5033708;28;20217;-38
2023/08/02 09:13:23;;;;;;;4.78;3.40;;;;;;;;;;5033237;28;20200;-39
2023/08/02 09:16:14;;;;;;;3.47;3.17;;;;;;;;;;5033432;28;20258;-38
2023/08/02 09:18:43;;;;;;;5.57;3.00;;;;;;;;;;5032830;28;20219;-38
2023/08/02 09:21:14;;;;;;;4.57;2.53;;;;;;;;;;5033348;28;20235;-38
2023/08/02 09:23:57;;;;;;;3.15;2.40;;;;;;;;;;5033559;28;20273;-38
2023/08/02 09:26:25;;;;;;;2.95;2.63;;;;;;;;;;5033819;28;20204;-39
2023/08/02 09:29:04;;;;;;;3.47;2.35;;;;;;;;;;5033323;28;20215;-38
2023/08/02 09:31:34;;;;;;;3.15;2.50;;;;;;;;;;5033252;28;20204;-38
2023/08/02 09:34:03;;;;;;;3.35;2.20;;;;;;;;;;5033236;28;20228;-39
2023/08/02 09:36:32;;;;;;;3.35;2.08;;;;;;;;;;5033223;28;20661;-39
2023/08/02 09:39:01;;;;;;;2.38;2.17;;;;;;;;;;5033424;28;20536;-39
2023/08/02 09:41:30;;;;;;;2.65;2.08;;;;;;;;;;5033407;28;20561;-38
2023/08/02 09:44:00;;;;;;;2.40;1.70;;;;;;;;;;5033418;28;20188;-39
2023/08/02 09:46:29;;;;;;;2.88;2.20;;;;;;;;;;5033348;28;20262;-39
2023/08/02 09:48:57;;;;;;;2.53;1.90;;;;;;;;;;5033009;28;20211;-39
2023/08/02 09:51:50;;;;;;;2.78;2.15;;;;;;;;;;5033009;28;20231;-40
2023/08/02 09:54:18;;;;;;;4.10;2.42;;;;;;;;;;5031187;28;20311;-39
2023/08/02 09:56:45;;;;;;;4.80;1.80;;;;;;;;;;5032969;28;20280;-40
2023/08/02 09:59:13;;;;;;;3.95;2.63;;;;;;;;;;5031774;28;20661;-39
2023/08/02 10:01:41;;;;;;;2.80;2.05;;;;;;;;;;5032934;28;20679;-38
2023/08/02 10:04:12;;;;;;;4.68;2.03;;;;;;;;;;5033085;28;20241;-39
2023/08/02 10:06:44;;;;;;;2.25;1.80;;;;;;;;;;5031974;28;20617;-38
2023/08/02 10:09:15;;;;;;;3.55;1.90;;;;;;;;;;5032877;28;20212;-38
2023/08/02 10:12:02;;;;;;;7.05;1.85;;;;;;;;;;5031702;28;20193;-39
2023/08/02 10:14:32;;;;;;;2.40;1.90;;;;;;;;;;5033190;28;20296;-38
2023/08/02 10:17:01;;;;;;;2.25;1.73;;;;;;;;;;5031767;28;20200;-39
2023/08/02 10:19:32;;;;;;;2.50;1.58;;;;;;;;;;5032269;28;20239;-39
2023/08/02 10:22:01;;;;;;;3.35;1.70;;;;;;;;;;5032763;28;20205;-39
2023/08/02 10:24:28;;;;;;;3.00;1.85;;;;;;;;;;5032723;28;20208;-39
2023/08/02 10:26:57;;;;;;;3.53;1.70;;;;;;;;;;5033077;28;20208;-38
2023/08/02 10:29:25;;;;;;;1.50;1.40;;;;;;;;;;5033316;28;20288;-40
2023/08/02 10:31:53;;;;;;;1.70;1.42;;;;;;;;;;5034395;28;20211;-39
2023/08/02 10:34:35;;;;;;;2.13;1.60;;;;;;;;;;5033683;28;20319;-39
2023/08/02 10:37:03;;;;;;;2.28;1.55;;;;;;;;;;5036432;28;20213;-38
2023/08/02 10:39:45;;;;;;;1.80;1.20;;;;;;;;;;5036099;28;20296;-39
2023/08/02 10:42:13;;;;;;;2.47;1.52;;;;;;;;;;5036054;28;20236;-39
2023/08/02 10:44:56;;;;;;;3.53;1.48;;;;;;;;;;5036171;28;20204;-39
2023/08/02 10:47:34;;;;;;;4.45;1.40;;;;;;;;;;5036341;28;20267;-40
2023/08/02 10:50:02;;;;;;;2.88;1.30;;;;;;;;;;5036022;28;20204;-39
2023/08/02 10:52:31;;;;;;;1.75;1.30;;;;;;;;;;5036354;28;20259;-38
2023/08/02 10:55:15;;;;;;;1.65;1.38;;;;;;;;;;5034650;28;20262;-39
2023/08/02 10:57:54;;;;;;;1.88;1.13;;;;;;;;;;5035880;28;20791;-38
2023/08/02 11:00:24;;;;;;;3.78;1.27;;;;;;;;;;5035821;28;20225;-39
2023/08/02 11:02:52;;;;;;;1.23;1.05;;;;;;;;;;5035757;28;20201;-39
2023/08/02 11:05:39;;;;;;;2.03;1.00;;;;;;;;;;5035749;28;20216;-39
2023/08/02 11:08:10;;;;;;;3.58;1.25;;;;;;;;;;5035574;28;20208;-39
2023/08/02 11:10:55;;;;;;;2.70;1.27;;;;;;;;;;5035529;28;20211;-39
2023/08/02 11:13:23;;;;;;;3.53;1.17;;;;;;;;;;5035690;28;20205;-38
2023/08/02 11:16:02;;;;;;;1.63;1.10;;;;;;;;;;5034506;28;20221;-39
2023/08/02 11:18:31;;;;;;;2.05;1.58;;;;;;;;;;5034316;28;20208;-37
2023/08/02 11:21:09;;;;;;;2.60;1.30;;;;;;;;;;5035724;28;20287;-40
2023/08/02 11:23:36;;;;;;;3.70;1.23;;;;;;;;;;5035465;28;20204;-38
2023/08/02 11:26:07;;;;;;;3.88;1.33;;;;;;;;;;5035216;28;20212;-38
2023/08/02 11:28:41;;;;;;;2.08;1.30;;;;;;;;;;5035336;28;20203;-38
2023/08/02 11:31:11;;;;;;;1.90;1.27;;;;;;;;;;5035480;28;20201;-38
2023/08/02 11:33:40;;;;;;;2.28;1.50;;;;;;;;;;5035255;28;20201;-38
2023/08/02 11:36:07;;;;;;;2.83;1.23;;;;;;;;;;5034926;28;20315;-38
2023/08/02 11:38:38;;;;;;;1.92;1.27;;;;;;;;;;5034902;28;20204;-38
2023/08/02 11:41:17;;;;;;;2.08;1.42;;;;;;;;;;5034397;28;20255;-38
2023/08/02 11:43:45;;;;;;;2.08;1.40;;;;;;;;;;5035285;28;20215;-39
2023/08/02 11:46:21;;;;;;;1.42;1.10;;;;;;;;;;5035142;28;20287;-38
2023/08/02 11:48:49;;;;;;;3.05;1.40;;;;;;;;;;5034646;28;20262;-38
2023/08/02 11:51:19;;;;;;;2.00;1.25;;;;;;;;;;5035007;28;20223;-38
2023/08/02 11:53:57;;;;;;;3.67;1.35;;;;;;;;;;5034600;28;20205;-38
2023/08/02 11:56:25;;;;;;;2.60;1.27;;;;;;;;;;5034578;28;20212;-39
2023/08/02 11:58:54;;;;;;;1.95;1.35;;;;;;;;;;5035288;28;20204;-38
2023/08/02 12:01:21;;;;;;;3.85;1.70;;;;;;;;;;5034664;28;20254;-38
2023/08/02 12:04:00;;;;;;;2.08;1.35;;;;;;;;;;5034712;28;20237;-38
2023/08/02 12:06:42;;;;;;;2.80;1.40;;;;;;;;;;5034897;28;20242;-38
2023/08/02 12:09:12;;;;;;;2.38;1.52;;;;;;;;;;5033188;28;20196;-38
2023/08/02 12:11:39;;;;;;;2.60;1.50;;;;;;;;;;5034440;28;20208;-38
2023/08/02 12:14:06;;;;;;;3.13;1.75;;;;;;;;;;5034421;28;20208;-38
2023/08/02 12:16:41;;;;;;;2.00;1.63;;;;;;;;;;5034455;28;20230;-38
2023/08/02 12:19:10;;;;;;;3.85;1.98;;;;;;;;;;5034490;28;20224;-39
2023/08/02 12:21:38;;;;;;;4.05;1.88;;;;;;;;;;5034493;28;20205;-39
2023/08/02 12:24:16;;;;;;;2.25;1.75;;;;;;;;;;5033980;28;20205;-38
2023/08/02 12:26:43;;;;;;;2.67;2.00;;;;;;;;;;5034596;28;20384;-38
2023/08/02 12:29:24;;;;;;;3.20;2.20;;;;;;;;;;5034020;28;20692;-38
2023/08/02 12:31:54;;;;;;;2.53;1.67;;;;;;;;;;5034115;28;20205;-38
2023/08/02 12:34:26;;;;;;;2.92;2.00;;;;;;;;;;5034205;28;20200;-38
2023/08/02 12:36:54;;;;;;;3.10;2.20;;;;;;;;;;5034520;28;20235;-38
2023/08/02 12:39:22;;;;;;;4.20;2.47;;;;;;;;;;5033841;28;20212;-38
2023/08/02 12:41:49;;;;;;;4.78;3.10;;;;;;;;;;5034115;28;20205;-38
2023/08/02 12:44:17;;;;;;;5.85;3.60;;;;;;;;;;5033876;28;20263;-38
2023/08/02 12:46:44;;;;;;;8.10;5.35;;;;;;;;;;5033703;28;20677;-39
2023/08/02 12:49:11;;;;;;;7.57;4.90;;;;;;;;;;5033617;28;20669;-38
2023/08/02 12:51:38;;;;;;;8.93;5.45;;;;;;;;;;5033667;28;20231;-38
2023/08/02 12:54:06;;;;;;;7.32;5.15;;;;;;;;;;5032828;28;20266;-38
2023/08/02 12:56:33;;;;;;;7.30;5.38;;;;;;;;;;5033757;28;20274;-38
2023/08/02 12:59:00;;;;;;;9.25;6.10;;;;;;;;;;5033968;28;20554;-38
2023/08/02 13:01:27;;;;;;;8.38;5.57;;;;;;;;;;5033949;28;20208;-38
2023/08/02 13:03:55;;;;;;;9.70;6.60;;;;;;;;;;5032113;28;20241;-39
2023/08/02 13:06:22;;;;;;;7.07;5.90;;;;;;;;;;5033476;28;20201;-39
2023/08/02 13:08:49;;;;;;;7.00;5.55;;;;;;;;;;5033599;28;20213;-40
2023/08/02 13:11:16;;;;;;;7.72;5.68;;;;;;;;;;5033355;28;20207;-38
2023/08/02 13:13:43;;;;;;;6.55;4.43;;;;;;;;;;5033581;28;20232;-39
2023/08/02 13:16:10;;;;;;;7.70;4.93;;;;;;;;;;5033399;28;20224;-38
2023/08/02 13:18:37;;;;;;;7.05;5.15;;;;;;;;;;5033633;28;20208;-38
2023/08/02 13:21:04;;;;;;;7.75;5.05;;;;;;;;;;5033642;28;20236;-38
2023/08/02 13:23:32;;;;;;;7.18;5.40;;;;;;;;;;5033803;28;20200;-38
2023/08/02 13:25:59;;;;;;;7.93;5.38;;;;;;;;;;5033580;28;20224;-38
2023/08/02 13:28:26;;;;;;;7.50;5.95;;;;;;;;;;5033425;28;20207;-38
2023/08/02 13:30:58;;;;;;;8.27;5.40;;;;;;;;;;5033537;28;20212;-38
2023/08/02 13:33:26;;;;;;;11.48;5.85;;;;;;;;;;5033306;28;20201;-39
2023/08/02 13:35:53;;;;;;;9.45;5.35;;;;;;;;;;5033028;28;20236;-38
2023/08/02 13:38:20;;;;;;;6.75;5.15;;;;;;;;;;5033481;28;20216;-38
2023/08/02 13:40:50;;;;;;;6.32;4.50;;;;;;;;;;5033486;28;20228;-38
2023/08/02 13:43:17;;;;;;;6.22;4.07;;;;;;;;;;5033147;28;20200;-39
2023/08/02 13:45:44;;;;;;;4.13;2.88;;;;;;;;;;5033265;28;20212;-38
2023/08/02 13:48:12;;;;;;;4.88;3.72;;;;;;;;;;5033072;28;20204;-39
2023/08/02 13:50:39;;;;;;;6.15;3.17;;;;;;;;;;5033062;28;20208;-38
2023/08/02 13:53:06;;;;;;;3.42;2.92;;;;;;;;;;5033240;28;20205;-39
2023/08/02 13:55:33;;;;;;;5.07;3.00;;;;;;;;;;5033276;28;20229;-38
2023/08/02 13:58:03;;;;;;;3.17;2.28;;;;;;;;;;5033117;28;20263;-38
2023/08/02 14:00:30;;;;;;;2.83;2.17;;;;;;;;;;5033160;28;20205;-40
2023/08/02 14:02:57;;;;;;;2.65;2.17;;;;;;;;;;5032551;28;20584;-39
2023/08/02 14:05:25;;;;;;;2.30;2.10;;;;;;;;;;5035370;28;20204;-39
2023/08/02 14:07:52;;;;;;;1.95;1.75;;;;;;;;;;5036502;28;20205;-38
2023/08/02 14:10:19;;;;;;;3.05;2.20;;;;;;;;;;5036819;28;20662;-39
2023/08/02 14:12:46;;;;;;;2.05;1.60;;;;;;;;;;5036893;28;20226;-39
2023/08/02 14:15:13;;;;;;;3.13;2.05;;;;;;;;;;5036719;28;20334;-39
2023/08/02 14:17:41;;;;;;;5.55;1.90;;;;;;;;;;5036598;28;20212;-39
2023/08/02 14:20:08;;;;;;;3.00;1.88;;;;;;;;;;5036699;28;20212;-38
2023/08/02 14:22:36;;;;;;;1.88;1.70;;;;;;;;;;5036383;28;20209;-38
2023/08/02 14:25:03;;;;;;;2.65;1.50;;;;;;;;;;5036354;28;20693;-38
2023/08/02 14:27:31;;;;;;;3.20;1.95;;;;;;;;;;5036284;28;20231;-39
2023/08/02 14:29:58;;;;;;;2.17;1.38;;;;;;;;;;5036271;28;20208;-39
2023/08/02 14:32:27;;;;;;;2.45;1.35;;;;;;;;;;5036261;28;20665;-38
2023/08/02 14:34:54;;;;;;;2.55;1.17;;;;;;;;;;5034213;28;20216;-39
2023/08/02 14:37:22;;;;;;;2.22;1.10;;;;;;;;;;5036323;28;20220;-39
2023/08/02 14:39:49;;;;;;;2.00;1.20;;;;;;;;;;5036088;28;20576;-38
2023/08/02 14:42:17;;;;;;;1.30;1.00;;;;;;;;;;5036171;28;20199;-38
2023/08/02 14:44:44;;;;;;;1.45;0.70;;;;;;;;;;5036412;28;20215;-38
2023/08/02 14:47:11;;;;;;;1.33;0.88;;;;;;;;;;5036262;28;20211;-39
2023/08/02 14:49:38;;;;;;;1.13;0.90;;;;;;;;;;5036160;28;20205;-38